Time;durP1;ratioP1;P1;durP2;ratioP2;P2;SDS_P1;SDS_P2;PMS_P1;PMS_P2;Temp;Humidity;BMP_temperature;BMP_pressure;BME280_temperature;BME280_humidity;BME280_pressure;Samples;Min_cycle;Max_cycle;Signal;HPM_P1;HPM_P2
2023/01/19 00:02:23;;;;;;;18.20;7.57;;;;;;;;;;5034750;28;20116;-69
2023/01/19 00:04:49;;;;;;;24.58;9.10;;;;;;;;;;5034374;28;20027;-69
2023/01/19 00:07:14;;;;;;;23.23;8.52;;;;;;;;;;5034806;28;20101;-69
2023/01/19 00:09:40;;;;;;;22.20;8.23;;;;;;;;;;5034723;28;20025;-69
2023/01/19 00:12:05;;;;;;;24.67;8.23;;;;;;;;;;5034540;28;20090;-69
2023/01/19 00:14:31;;;;;;;30.42;9.93;;;;;;;;;;5034478;28;20064;-69
2023/01/19 00:16:57;;;;;;;24.58;8.32;;;;;;;;;;5034468;28;20065;-69
2023/01/19 00:19:22;;;;;;;25.75;8.68;;;;;;;;;;5034208;28;20382;-69
2023/01/19 00:21:48;;;;;;;24.52;9.00;;;;;;;;;;5034416;28;20163;-69
2023/01/19 00:24:13;;;;;;;27.90;9.07;;;;;;;;;;5034173;28;20108;-69
2023/01/19 00:26:41;;;;;;;22.40;7.80;;;;;;;;;;5034362;28;20037;-70
2023/01/19 00:29:07;;;;;;;25.02;8.50;;;;;;;;;;5034215;28;20482;-69
2023/01/19 00:31:35;;;;;;;29.67;8.43;;;;;;;;;;5033239;28;20052;-69
2023/01/19 00:34:00;;;;;;;24.25;8.93;;;;;;;;;;5034001;28;20022;-69
2023/01/19 00:36:26;;;;;;;21.10;8.02;;;;;;;;;;5032265;28;20052;-69
2023/01/19 00:38:51;;;;;;;22.63;8.07;;;;;;;;;;5014329;28;20040;-69
2023/01/19 00:41:17;;;;;;;34.30;13.75;;;;;;;;;;5014239;28;20018;-67
2023/01/19 00:43:43;;;;;;;26.45;11.00;;;;;;;;;;5014456;28;20026;-69
2023/01/19 00:46:09;;;;;;;30.55;10.63;;;;;;;;;;5007799;28;20364;-68
2023/01/19 00:48:34;;;;;;;26.95;10.70;;;;;;;;;;5003246;28;20106;-69
2023/01/19 00:51:00;;;;;;;29.48;11.40;;;;;;;;;;5004090;28;20014;-68
2023/01/19 00:53:27;;;;;;;37.25;11.90;;;;;;;;;;5004548;28;20046;-68
2023/01/19 00:55:52;;;;;;;24.70;9.18;;;;;;;;;;5002909;28;20026;-68
2023/01/19 00:58:17;;;;;;;17.08;7.75;;;;;;;;;;5004219;28;20048;-68
2023/01/19 01:03:18;;;;;;;26.45;8.23;;;;;;;;;;5065759;22;20053;-66
2023/01/19 01:05:43;;;;;;;21.25;8.55;;;;;;;;;;5024661;28;20354;-66
2023/01/19 01:08:09;;;;;;;18.63;9.15;;;;;;;;;;5023670;28;20033;-66
2023/01/19 01:10:34;;;;;;;24.58;8.48;;;;;;;;;;5024960;28;20029;-67
2023/01/19 01:13:00;;;;;;;22.45;8.15;;;;;;;;;;5022436;28;20021;-67
2023/01/19 01:15:28;;;;;;;21.30;8.55;;;;;;;;;;5020879;28;20029;-67
2023/01/19 01:17:54;;;;;;;20.73;7.63;;;;;;;;;;5013593;28;20385;-67
2023/01/19 01:20:24;;;;;;;14.02;5.97;;;;;;;;;;5033272;28;20473;-67
2023/01/19 01:22:51;;;;;;;23.10;8.45;;;;;;;;;;5033484;28;20420;-67
2023/01/19 01:25:21;;;;;;;22.67;8.48;;;;;;;;;;5033643;28;20026;-67
2023/01/19 01:27:47;;;;;;;23.00;8.50;;;;;;;;;;5033533;28;20076;-67
2023/01/19 01:30:13;;;;;;;20.38;8.40;;;;;;;;;;5033146;28;20030;-67
2023/01/19 01:32:39;;;;;;;19.65;8.48;;;;;;;;;;5033476;28;20036;-66
2023/01/19 01:35:05;;;;;;;18.45;8.70;;;;;;;;;;5033214;28;20032;-66
2023/01/19 01:37:31;;;;;;;21.00;9.38;;;;;;;;;;5033322;28;20112;-66
2023/01/19 01:39:56;;;;;;;23.00;9.43;;;;;;;;;;5033166;28;20163;-67
2023/01/19 01:42:30;;;;;;;24.23;8.80;;;;;;;;;;5032869;28;20479;-67
2023/01/19 01:44:58;;;;;;;20.90;8.00;;;;;;;;;;5033008;28;20021;-67
2023/01/19 01:47:41;;;;;;;22.08;8.80;;;;;;;;;;5033108;28;20044;-67
2023/01/19 01:50:12;;;;;;;6.93;4.30;;;;;;;;;;5033115;28;20056;-67
2023/01/19 01:52:51;;;;;;;9.77;4.95;;;;;;;;;;5033110;28;20025;-67
2023/01/19 01:55:19;;;;;;;27.60;9.57;;;;;;;;;;5033099;28;20053;-68
2023/01/19 01:57:50;;;;;;;27.55;9.23;;;;;;;;;;5032735;28;20025;-67
2023/01/19 02:00:16;;;;;;;30.20;8.55;;;;;;;;;;5032705;28;20029;-67
2023/01/19 02:02:52;;;;;;;26.30;7.93;;;;;;;;;;5040422;28;20060;-68
2023/01/19 02:05:25;;;;;;;27.70;9.10;;;;;;;;;;5052805;28;20079;-67
2023/01/19 02:13:45;;;;;;;16.35;7.30;;;;;;;;;;5052773;28;20044;-67
2023/01/19 02:16:13;;;;;;;18.27;8.88;;;;;;;;;;5034855;28;20111;-67
2023/01/19 02:18:39;;;;;;;24.13;9.82;;;;;;;;;;5052651;28;20433;-68
2023/01/19 02:21:22;;;;;;;23.83;9.85;;;;;;;;;;5052418;28;20104;-68
2023/01/19 02:24:06;;;;;;;23.80;9.23;;;;;;;;;;5052507;28;20091;-67
2023/01/19 02:26:41;;;;;;;23.48;9.30;;;;;;;;;;5052555;28;20029;-67
2023/01/19 02:29:10;;;;;;;19.80;9.05;;;;;;;;;;5052211;28;20373;-67
2023/01/19 02:31:38;;;;;;;24.80;10.30;;;;;;;;;;5052560;28;20496;-67
2023/01/19 02:34:05;;;;;;;30.42;9.90;;;;;;;;;;5052377;28;20072;-67
2023/01/19 02:36:37;;;;;;;20.02;8.85;;;;;;;;;;5047189;28;20025;-67
2023/01/19 02:39:04;;;;;;;25.63;10.38;;;;;;;;;;5032443;28;20377;-67
2023/01/19 02:41:37;;;;;;;19.75;9.63;;;;;;;;;;5032492;28;20461;-67
2023/01/19 02:44:05;;;;;;;17.65;8.35;;;;;;;;;;5032191;28;20033;-67
2023/01/19 02:46:30;;;;;;;25.42;9.32;;;;;;;;;;5032473;28;20036;-68
2023/01/19 02:48:59;;;;;;;19.05;8.88;;;;;;;;;;5032428;28;20025;-67
2023/01/19 02:51:25;;;;;;;23.73;10.02;;;;;;;;;;5014661;28;20458;-67
2023/01/19 02:54:03;;;;;;;23.52;10.35;;;;;;;;;;5032523;28;20030;-67
2023/01/19 02:57:03;;;;;;;24.23;9.38;;;;;;;;;;5036275;28;20025;-67
2023/01/19 02:59:39;;;;;;;17.37;7.03;;;;;;;;;;5018901;28;20041;-67
2023/01/19 03:02:30;;;;;;;19.00;7.78;;;;;;;;;;5035900;28;20489;-67
2023/01/19 03:05:07;;;;;;;11.20;5.93;;;;;;;;;;5051778;28;20388;-67
2023/01/19 03:07:38;;;;;;;22.45;9.25;;;;;;;;;;5056028;28;20029;-67
2023/01/19 03:10:23;;;;;;;22.83;9.75;;;;;;;;;;5055882;28;20017;-67
2023/01/19 03:13:09;;;;;;;18.27;9.05;;;;;;;;;;5055744;28;20116;-67
2023/01/19 03:15:53;;;;;;;18.23;7.82;;;;;;;;;;5055947;28;20027;-67
2023/01/19 03:18:23;;;;;;;11.63;7.38;;;;;;;;;;5055709;28;20036;-67
2023/01/19 03:20:52;;;;;;;8.07;5.40;;;;;;;;;;5055644;28;20036;-67
2023/01/19 03:23:20;;;;;;;11.82;6.07;;;;;;;;;;5055552;28;20029;-68
2023/01/19 03:25:48;;;;;;;14.18;8.10;;;;;;;;;;5055492;28;20100;-68
2023/01/19 03:28:18;;;;;;;13.85;6.38;;;;;;;;;;5055356;28;20079;-67
2023/01/19 03:30:49;;;;;;;15.25;7.30;;;;;;;;;;5055655;28;20376;-67
2023/01/19 03:33:28;;;;;;;24.48;8.55;;;;;;;;;;5055352;28;20028;-68
2023/01/19 03:36:02;;;;;;;20.15;9.23;;;;;;;;;;5055334;28;20029;-67
2023/01/19 03:38:33;;;;;;;20.40;7.70;;;;;;;;;;5055382;28;20074;-68
2023/01/19 03:41:02;;;;;;;9.65;5.75;;;;;;;;;;5055093;28;20029;-68
2023/01/19 03:43:29;;;;;;;18.92;8.20;;;;;;;;;;5037191;28;20033;-67
2023/01/19 03:45:55;;;;;;;16.35;7.72;;;;;;;;;;5055161;28;20021;-68
2023/01/19 03:48:21;;;;;;;19.95;7.78;;;;;;;;;;5055125;28;20025;-68
2023/01/19 03:50:47;;;;;;;16.77;7.50;;;;;;;;;;5055139;28;20037;-67
2023/01/19 03:53:14;;;;;;;20.83;9.48;;;;;;;;;;5054979;28;20033;-67
2023/01/19 03:55:43;;;;;;;19.02;8.10;;;;;;;;;;5054693;28;20052;-67
2023/01/19 03:58:09;;;;;;;21.25;8.15;;;;;;;;;;5054655;28;20060;-68
2023/01/19 04:00:35;;;;;;;14.77;8.23;;;;;;;;;;5054819;28;20052;-67
2023/01/19 04:03:01;;;;;;;17.35;8.43;;;;;;;;;;5054458;28;20553;-67
2023/01/19 04:05:28;;;;;;;19.05;8.15;;;;;;;;;;5014942;28;20382;-67
2023/01/19 04:07:53;;;;;;;20.83;7.95;;;;;;;;;;5014880;28;20028;-67
2023/01/19 04:10:19;;;;;;;17.75;7.57;;;;;;;;;;5014889;28;20026;-69
2023/01/19 04:12:45;;;;;;;20.85;6.07;;;;;;;;;;5015015;28;20029;-67
2023/01/19 04:15:11;;;;;;;10.98;5.70;;;;;;;;;;5014838;28;20519;-67
2023/01/19 04:17:37;;;;;;;15.90;7.18;;;;;;;;;;5014810;28;20072;-67
2023/01/19 04:20:03;;;;;;;16.58;7.95;;;;;;;;;;5014835;28;20034;-69
2023/01/19 04:22:29;;;;;;;17.98;8.23;;;;;;;;;;5014688;28;20113;-69
2023/01/19 04:24:54;;;;;;;15.25;7.20;;;;;;;;;;5014623;28;20113;-69
2023/01/19 04:27:20;;;;;;;6.50;4.00;;;;;;;;;;5014662;28;20465;-69
2023/01/19 04:29:46;;;;;;;14.05;6.93;;;;;;;;;;5014649;28;20470;-67
2023/01/19 04:32:14;;;;;;;17.65;6.75;;;;;;;;;;5014550;28;20497;-69
2023/01/19 04:34:40;;;;;;;10.98;5.30;;;;;;;;;;5014449;28;20018;-69
2023/01/19 04:37:07;;;;;;;15.32;7.18;;;;;;;;;;5014468;28;20048;-69
2023/01/19 04:39:33;;;;;;;17.83;7.15;;;;;;;;;;5014212;28;20025;-68
2023/01/19 04:41:59;;;;;;;16.38;7.03;;;;;;;;;;5014355;28;20411;-69
2023/01/19 04:44:25;;;;;;;17.05;7.38;;;;;;;;;;5014297;28;20208;-69
2023/01/19 04:46:51;;;;;;;15.73;7.03;;;;;;;;;;5014255;28;20018;-67
2023/01/19 04:49:16;;;;;;;7.82;4.97;;;;;;;;;;5014186;28;20026;-69
2023/01/19 04:51:42;;;;;;;13.05;4.68;;;;;;;;;;5014199;28;20563;-70
2023/01/19 04:54:08;;;;;;;16.52;8.18;;;;;;;;;;5014056;28;20054;-67
2023/01/19 04:56:33;;;;;;;8.18;4.63;;;;;;;;;;5014184;28;20438;-67
2023/01/19 04:58:59;;;;;;;15.88;8.48;;;;;;;;;;5013905;28;20084;-67
2023/01/19 05:01:25;;;;;;;13.85;7.20;;;;;;;;;;5013871;28;20049;-67
2023/01/19 05:03:50;;;;;;;9.55;5.15;;;;;;;;;;5027275;28;20083;-66
2023/01/19 05:06:16;;;;;;;19.15;8.82;;;;;;;;;;5053623;28;20029;-69
2023/01/19 05:08:41;;;;;;;20.27;5.95;;;;;;;;;;5036895;28;20105;-67
2023/01/19 05:11:07;;;;;;;14.18;6.63;;;;;;;;;;5033234;28;20033;-69
2023/01/19 05:13:32;;;;;;;18.38;5.95;;;;;;;;;;5033428;28;20079;-67
2023/01/19 05:15:58;;;;;;;11.90;5.78;;;;;;;;;;5033490;28;20025;-69
2023/01/19 05:18:24;;;;;;;22.98;8.82;;;;;;;;;;5032874;28;20492;-67
2023/01/19 05:20:49;;;;;;;21.48;10.20;;;;;;;;;;5033231;28;20029;-67
2023/01/19 05:23:15;;;;;;;19.10;8.90;;;;;;;;;;5033340;28;20076;-67
2023/01/19 05:25:41;;;;;;;16.83;8.13;;;;;;;;;;5033341;28;20022;-68
2023/01/19 05:28:07;;;;;;;9.70;4.78;;;;;;;;;;5033236;28;20114;-67
2023/01/19 05:30:32;;;;;;;19.88;9.20;;;;;;;;;;5033289;28;20067;-68
2023/01/19 05:32:57;;;;;;;11.07;5.40;;;;;;;;;;5033105;28;20056;-67
2023/01/19 05:35:23;;;;;;;14.27;7.47;;;;;;;;;;5033299;28;20101;-68
2023/01/19 05:37:48;;;;;;;8.50;5.35;;;;;;;;;;5032858;28;20112;-67
2023/01/19 05:40:14;;;;;;;19.65;8.63;;;;;;;;;;5032839;28;20032;-67
2023/01/19 05:42:39;;;;;;;12.65;7.03;;;;;;;;;;5032836;28;20121;-67
2023/01/19 05:45:05;;;;;;;20.58;8.80;;;;;;;;;;5033004;28;20037;-68
2023/01/19 05:47:31;;;;;;;20.08;9.27;;;;;;;;;;5033087;28;20044;-67
2023/01/19 05:49:57;;;;;;;15.63;6.68;;;;;;;;;;5015192;28;20473;-67
2023/01/19 05:52:23;;;;;;;15.60;7.65;;;;;;;;;;5032695;28;20041;-68
2023/01/19 05:54:50;;;;;;;21.27;9.50;;;;;;;;;;5015370;28;20104;-67
2023/01/19 05:57:16;;;;;;;14.98;6.82;;;;;;;;;;5032886;28;20076;-68
2023/01/19 05:59:41;;;;;;;19.25;8.50;;;;;;;;;;5032789;28;20038;-68
2023/01/19 06:02:07;;;;;;;14.25;6.13;;;;;;;;;;5032522;28;20194;-68
2023/01/19 06:04:33;;;;;;;17.55;6.97;;;;;;;;;;5045281;28;20032;-69
2023/01/19 06:06:58;;;;;;;11.70;5.70;;;;;;;;;;5052259;28;20021;-69
2023/01/19 06:09:23;;;;;;;14.20;6.68;;;;;;;;;;5052598;28;20029;-69
2023/01/19 06:11:49;;;;;;;19.50;9.13;;;;;;;;;;5052551;28;20037;-69
2023/01/19 06:14:14;;;;;;;10.75;6.50;;;;;;;;;;5052504;28;20480;-69
2023/01/19 06:16:40;;;;;;;9.73;5.50;;;;;;;;;;5052380;28;20078;-69
2023/01/19 06:19:05;;;;;;;14.18;8.15;;;;;;;;;;5052337;28;20481;-70
2023/01/19 06:21:32;;;;;;;13.63;6.88;;;;;;;;;;5052071;28;20171;-69
2023/01/19 06:23:57;;;;;;;16.67;7.93;;;;;;;;;;5052206;28;20500;-68
2023/01/19 06:26:24;;;;;;;12.80;6.70;;;;;;;;;;5052279;28;20057;-68
2023/01/19 06:28:51;;;;;;;13.68;6.72;;;;;;;;;;5052247;28;20059;-69
2023/01/19 06:31:16;;;;;;;15.35;7.78;;;;;;;;;;5056476;28;20029;-69
2023/01/19 06:33:42;;;;;;;10.07;6.18;;;;;;;;;;5055875;28;20033;-68
2023/01/19 06:36:07;;;;;;;20.77;8.80;;;;;;;;;;5056002;28;20108;-69
2023/01/19 06:38:33;;;;;;;18.75;9.13;;;;;;;;;;5056213;28;20037;-69
2023/01/19 06:40:58;;;;;;;15.40;8.88;;;;;;;;;;5056298;28;20025;-69
2023/01/19 06:43:25;;;;;;;21.85;10.40;;;;;;;;;;5055990;28;20088;-68
2023/01/19 06:45:51;;;;;;;17.23;9.50;;;;;;;;;;5056049;28;20017;-69
2023/01/19 06:48:17;;;;;;;25.52;9.32;;;;;;;;;;5056083;28;20427;-69
2023/01/19 06:50:46;;;;;;;18.10;9.55;;;;;;;;;;5056037;28;20072;-69
2023/01/19 06:53:12;;;;;;;14.55;8.18;;;;;;;;;;5038128;28;20025;-69
2023/01/19 06:55:38;;;;;;;12.35;6.63;;;;;;;;;;5056055;28;20032;-69
2023/01/19 06:58:04;;;;;;;20.02;8.50;;;;;;;;;;5055847;28;20392;-69
2023/01/19 07:00:29;;;;;;;21.35;9.68;;;;;;;;;;5056056;28;20028;-69
2023/01/19 07:02:55;;;;;;;14.38;7.43;;;;;;;;;;5055695;28;20048;-69
2023/01/19 07:05:21;;;;;;;21.70;10.07;;;;;;;;;;5055578;28;20457;-69
2023/01/19 07:07:55;;;;;;;22.05;9.68;;;;;;;;;;5055663;28;20028;-69
2023/01/19 07:10:22;;;;;;;20.65;10.07;;;;;;;;;;5055700;28;20025;-69
2023/01/19 07:12:48;;;;;;;18.17;9.13;;;;;;;;;;5055848;28;20415;-69
2023/01/19 07:15:15;;;;;;;21.25;10.18;;;;;;;;;;5055228;28;20040;-68
2023/01/19 07:17:41;;;;;;;18.92;9.00;;;;;;;;;;5037705;28;20083;-69
2023/01/19 07:20:11;;;;;;;20.73;9.88;;;;;;;;;;5055199;28;20054;-69
2023/01/19 07:22:37;;;;;;;6.40;3.97;;;;;;;;;;5055478;28;20032;-68
2023/01/19 07:25:03;;;;;;;10.77;6.65;;;;;;;;;;5055560;28;20125;-69
2023/01/19 07:27:29;;;;;;;19.35;8.63;;;;;;;;;;5055404;28;20029;-69
2023/01/19 07:29:54;;;;;;;16.67;8.13;;;;;;;;;;5055293;28;20028;-68
2023/01/19 07:32:20;;;;;;;16.02;8.25;;;;;;;;;;5037504;28;20104;-69
2023/01/19 07:34:45;;;;;;;20.40;9.68;;;;;;;;;;5055101;28;20108;-68
2023/01/19 07:37:11;;;;;;;18.65;8.52;;;;;;;;;;5055321;28;20473;-68
2023/01/19 07:39:37;;;;;;;20.67;9.43;;;;;;;;;;5054885;28;20373;-68
2023/01/19 07:42:03;;;;;;;15.55;7.50;;;;;;;;;;5054918;28;20415;-69
2023/01/19 07:44:28;;;;;;;29.95;10.82;;;;;;;;;;5055179;28;20029;-69
2023/01/19 07:46:54;;;;;;;27.00;10.10;;;;;;;;;;5055063;28;20422;-68
2023/01/19 07:49:19;;;;;;;17.13;8.07;;;;;;;;;;5054822;28;20032;-69
2023/01/19 07:51:45;;;;;;;21.00;10.18;;;;;;;;;;5054910;28;20028;-68
2023/01/19 07:54:11;;;;;;;18.02;8.93;;;;;;;;;;5054919;28;20035;-68
2023/01/19 07:56:36;;;;;;;11.68;6.18;;;;;;;;;;5055007;28;20028;-68
2023/01/19 07:59:02;;;;;;;25.25;11.27;;;;;;;;;;5054801;28;20376;-69
2023/01/19 08:01:28;;;;;;;15.05;8.02;;;;;;;;;;5054670;28;20057;-69
2023/01/19 08:03:53;;;;;;;18.20;9.07;;;;;;;;;;5054328;28;20032;-69
2023/01/19 08:06:21;;;;;;;17.75;10.00;;;;;;;;;;5054742;28;20029;-69
2023/01/19 08:08:47;;;;;;;19.17;10.35;;;;;;;;;;5054766;28;20029;-68
2023/01/19 08:11:14;;;;;;;16.30;8.52;;;;;;;;;;5048252;28;20427;-70
2023/01/19 08:13:39;;;;;;;11.60;6.47;;;;;;;;;;5038214;28;20021;-69
2023/01/19 08:16:05;;;;;;;12.95;6.82;;;;;;;;;;5034056;28;20386;-69
2023/01/19 08:18:31;;;;;;;20.25;9.73;;;;;;;;;;5034105;28;20026;-69
2023/01/19 08:20:58;;;;;;;12.77;7.30;;;;;;;;;;5034070;28;20461;-70
2023/01/19 08:23:24;;;;;;;16.45;9.68;;;;;;;;;;5033966;28;20029;-69
2023/01/19 08:25:49;;;;;;;14.15;8.35;;;;;;;;;;5034207;28;20030;-70
2023/01/19 08:28:16;;;;;;;16.23;8.88;;;;;;;;;;5032734;28;20021;-70
2023/01/19 08:30:43;;;;;;;12.73;7.47;;;;;;;;;;5033722;28;20017;-70
2023/01/19 08:33:10;;;;;;;16.63;8.77;;;;;;;;;;5033741;28;20033;-69
2023/01/19 08:35:40;;;;;;;14.40;8.38;;;;;;;;;;5033705;28;20041;-71
2023/01/19 08:38:08;;;;;;;12.30;7.22;;;;;;;;;;5033986;28;20048;-69
2023/01/19 08:40:36;;;;;;;15.57;8.18;;;;;;;;;;5033790;28;20028;-69
2023/01/19 08:43:06;;;;;;;12.48;7.65;;;;;;;;;;5033540;28;20056;-69
2023/01/19 08:45:43;;;;;;;14.45;8.30;;;;;;;;;;5034014;28;20041;-69
2023/01/19 08:48:09;;;;;;;14.52;6.03;;;;;;;;;;5033760;28;20041;-69
2023/01/19 08:50:34;;;;;;;17.10;9.23;;;;;;;;;;5033187;28;20033;-69
2023/01/19 08:53:03;;;;;;;17.77;10.07;;;;;;;;;;5032425;28;20436;-69
2023/01/19 08:55:29;;;;;;;18.17;10.23;;;;;;;;;;5033655;28;20051;-69
2023/01/19 08:57:56;;;;;;;16.75;10.30;;;;;;;;;;5033407;28;20096;-69
2023/01/19 09:00:23;;;;;;;18.23;9.98;;;;;;;;;;5033151;28;20029;-69
2023/01/19 09:02:49;;;;;;;15.30;8.02;;;;;;;;;;5033113;28;20514;-69
2023/01/19 09:05:15;;;;;;;16.23;9.65;;;;;;;;;;5032769;28;20088;-69
2023/01/19 09:07:42;;;;;;;12.85;7.57;;;;;;;;;;5033253;28;20021;-69
2023/01/19 09:10:09;;;;;;;12.80;8.18;;;;;;;;;;5033216;28;20025;-69
2023/01/19 09:12:34;;;;;;;17.33;8.95;;;;;;;;;;5033104;28;20063;-69
2023/01/19 09:15:00;;;;;;;19.02;10.07;;;;;;;;;;5031705;28;20037;-68
2023/01/19 09:17:25;;;;;;;13.98;7.18;;;;;;;;;;5027014;28;20072;-68
2023/01/19 09:19:51;;;;;;;15.93;8.73;;;;;;;;;;5032867;28;20037;-69
2023/01/19 09:22:16;;;;;;;16.55;8.75;;;;;;;;;;5052954;28;20021;-69
2023/01/19 09:24:42;;;;;;;13.02;6.60;;;;;;;;;;5022471;28;20022;-68
2023/01/19 09:27:07;;;;;;;15.13;8.93;;;;;;;;;;5032573;28;20032;-68
2023/01/19 09:29:33;;;;;;;14.27;7.93;;;;;;;;;;5032877;28;20107;-68
2023/01/19 09:31:58;;;;;;;17.08;8.88;;;;;;;;;;5035036;28;20396;-69
2023/01/19 09:34:26;;;;;;;19.20;9.52;;;;;;;;;;5052821;28;20025;-68
2023/01/19 09:36:52;;;;;;;15.68;8.45;;;;;;;;;;5034680;28;20039;-69
2023/01/19 09:39:17;;;;;;;17.13;8.18;;;;;;;;;;5052478;28;20021;-68
2023/01/19 09:41:48;;;;;;;16.10;8.40;;;;;;;;;;5052497;28;20484;-68
2023/01/19 09:44:34;;;;;;;18.20;9.70;;;;;;;;;;5052220;28;20040;-68
2023/01/19 09:47:11;;;;;;;19.25;8.32;;;;;;;;;;5052430;28;20041;-68
2023/01/19 09:49:42;;;;;;;16.92;8.48;;;;;;;;;;5052458;28;20033;-68
2023/01/19 09:52:14;;;;;;;13.45;7.38;;;;;;;;;;5052446;28;20036;-68
2023/01/19 09:54:52;;;;;;;21.85;9.20;;;;;;;;;;5052504;28;20021;-68
2023/01/19 09:57:19;;;;;;;20.67;9.45;;;;;;;;;;5052261;28;20349;-68
2023/01/19 09:59:49;;;;;;;20.17;9.93;;;;;;;;;;5052116;28;20028;-68
2023/01/19 10:02:35;;;;;;;18.88;9.52;;;;;;;;;;5052066;28;20128;-69
2023/01/19 10:05:22;;;;;;;17.88;9.18;;;;;;;;;;5035418;28;20032;-69
2023/01/19 10:08:02;;;;;;;17.27;7.70;;;;;;;;;;5032333;28;20056;-69
2023/01/19 10:10:30;;;;;;;13.43;9.03;;;;;;;;;;5032312;28;20048;-68
2023/01/19 10:13:02;;;;;;;16.85;9.43;;;;;;;;;;5031932;28;20389;-68
2023/01/19 10:15:46;;;;;;;20.30;10.30;;;;;;;;;;5032341;28;20048;-69
2023/01/19 10:18:42;;;;;;;17.55;8.32;;;;;;;;;;5032338;28;20029;-69
2023/01/19 10:21:09;;;;;;;13.43;8.43;;;;;;;;;;5032125;28;20495;-68
2023/01/19 10:23:43;;;;;;;15.25;8.02;;;;;;;;;;5032212;28;20136;-68
2023/01/19 10:26:16;;;;;;;20.05;10.38;;;;;;;;;;5032330;28;20056;-68
2023/01/19 10:28:43;;;;;;;18.00;9.55;;;;;;;;;;5031979;28;20026;-68
2023/01/19 10:31:10;;;;;;;16.95;8.75;;;;;;;;;;5031504;28;20017;-68
2023/01/19 10:33:37;;;;;;;20.83;11.32;;;;;;;;;;5032238;28;20112;-69
2023/01/19 10:36:04;;;;;;;19.00;8.95;;;;;;;;;;5032201;28;20096;-67
2023/01/19 10:38:32;;;;;;;19.02;9.90;;;;;;;;;;5032160;28;20489;-68
2023/01/19 10:41:03;;;;;;;20.35;10.15;;;;;;;;;;5032150;28;20584;-68
2023/01/19 10:43:37;;;;;;;17.80;8.63;;;;;;;;;;5032223;28;20033;-68
2023/01/19 10:46:31;;;;;;;15.48;8.80;;;;;;;;;;5032069;28;20030;-69
2023/01/19 10:48:57;;;;;;;15.38;8.82;;;;;;;;;;5031886;28;20377;-68
2023/01/19 10:51:23;;;;;;;21.92;11.40;;;;;;;;;;5031582;28;20026;-68
2023/01/19 10:54:00;;;;;;;18.55;10.48;;;;;;;;;;5031837;28;20033;-68
2023/01/19 10:56:34;;;;;;;16.80;9.50;;;;;;;;;;5031780;28;20412;-68
2023/01/19 10:59:02;;;;;;;13.55;7.68;;;;;;;;;;5031809;28;20049;-68
2023/01/19 11:01:29;;;;;;;15.05;7.18;;;;;;;;;;5031705;28;20041;-69
2023/01/19 11:04:04;;;;;;;17.92;8.38;;;;;;;;;;5031644;28;20025;-69
2023/01/19 11:06:30;;;;;;;15.95;8.88;;;;;;;;;;5013739;28;20433;-69
2023/01/19 11:09:19;;;;;;;11.32;7.25;;;;;;;;;;5031675;28;20030;-69
2023/01/19 11:11:48;;;;;;;17.77;9.48;;;;;;;;;;5029998;28;20028;-69
2023/01/19 11:14:20;;;;;;;17.73;8.73;;;;;;;;;;5031430;28;20033;-69
2023/01/19 11:16:52;;;;;;;6.38;4.20;;;;;;;;;;5034486;28;20084;-69
2023/01/19 11:19:27;;;;;;;13.80;7.95;;;;;;;;;;5034910;28;20067;-69
2023/01/19 11:22:08;;;;;;;13.48;7.55;;;;;;;;;;5035340;28;20034;-69
2023/01/19 11:24:36;;;;;;;13.43;8.20;;;;;;;;;;5035304;28;20477;-73
2023/01/19 11:27:02;;;;;;;17.67;9.88;;;;;;;;;;5035261;28;20076;-71
2023/01/19 11:29:28;;;;;;;11.43;6.07;;;;;;;;;;5035085;28;20473;-71
2023/01/19 11:31:56;;;;;;;13.73;8.30;;;;;;;;;;5033494;28;20385;-69
2023/01/19 11:34:32;;;;;;;12.15;6.53;;;;;;;;;;5035114;28;20516;-68
2023/01/19 11:37:04;;;;;;;12.57;6.82;;;;;;;;;;5014380;28;20094;-68
2023/01/19 11:39:33;;;;;;;17.02;8.75;;;;;;;;;;5014184;28;20128;-68
2023/01/19 11:42:05;;;;;;;11.67;6.77;;;;;;;;;;5014439;28;20402;-68
2023/01/19 11:44:38;;;;;;;8.50;5.80;;;;;;;;;;5014248;28;20033;-68
2023/01/19 11:47:24;;;;;;;10.45;6.03;;;;;;;;;;5014342;28;20101;-68
2023/01/19 11:50:01;;;;;;;15.95;8.70;;;;;;;;;;5014165;28;20030;-69
2023/01/19 11:52:33;;;;;;;10.70;6.63;;;;;;;;;;5014253;28;20018;-68
2023/01/19 11:55:33;;;;;;;18.77;7.68;;;;;;;;;;5013927;28;20435;-68
2023/01/19 11:57:58;;;;;;;15.82;8.20;;;;;;;;;;5014106;28;20029;-67
2023/01/19 12:00:25;;;;;;;14.75;8.50;;;;;;;;;;5014001;28;20377;-68
2023/01/19 12:03:23;;;;;;;13.98;8.65;;;;;;;;;;5013762;28;20077;-68
2023/01/19 12:05:54;;;;;;;10.10;5.32;;;;;;;;;;4991924;28;20077;-68
2023/01/19 12:08:36;;;;;;;11.38;6.50;;;;;;;;;;4991907;28;20030;-69
2023/01/19 12:11:04;;;;;;;13.45;7.85;;;;;;;;;;4991858;28;20046;-69
2023/01/19 12:13:31;;;;;;;12.63;6.95;;;;;;;;;;4973113;28;20031;-69
2023/01/19 12:15:59;;;;;;;12.88;8.15;;;;;;;;;;4972933;28;20035;-68
2023/01/19 12:18:30;;;;;;;15.80;10.13;;;;;;;;;;4973401;28;20360;-69
2023/01/19 12:20:57;;;;;;;17.77;7.57;;;;;;;;;;4973257;28;20270;-69
2023/01/19 12:23:27;;;;;;;18.50;12.18;;;;;;;;;;4972525;28;20503;-70
2023/01/19 12:26:22;;;;;;;10.55;6.25;;;;;;;;;;4972996;28;20486;-70
2023/01/19 12:28:49;;;;;;;15.90;8.98;;;;;;;;;;4965778;28;20043;-69
2023/01/19 12:31:17;;;;;;;13.63;7.68;;;;;;;;;;4972711;28;20133;-69
2023/01/19 12:33:43;;;;;;;9.90;5.90;;;;;;;;;;4972268;28;20065;-70
2023/01/19 12:36:40;;;;;;;16.98;9.07;;;;;;;;;;4974496;28;20517;-70
2023/01/19 12:39:32;;;;;;;18.15;8.88;;;;;;;;;;4968219;28;20019;-70
2023/01/19 12:42:06;;;;;;;18.10;8.48;;;;;;;;;;4976294;28;20072;-71
2023/01/19 12:44:33;;;;;;;12.82;7.95;;;;;;;;;;5032880;28;20033;-70
2023/01/19 12:47:15;;;;;;;7.03;4.53;;;;;;;;;;5032935;28;20519;-71
2023/01/19 12:49:45;;;;;;;8.48;5.57;;;;;;;;;;5013465;28;20034;-70
2023/01/19 12:52:25;;;;;;;14.63;7.13;;;;;;;;;;5014663;28;20065;-70
2023/01/19 12:54:54;;;;;;;11.95;7.68;;;;;;;;;;5026032;28;20034;-70
2023/01/19 12:57:26;;;;;;;15.82;8.40;;;;;;;;;;5027561;28;20088;-69
2023/01/19 12:59:58;;;;;;;16.75;8.63;;;;;;;;;;5013771;28;20030;-69
2023/01/19 13:02:24;;;;;;;13.48;6.90;;;;;;;;;;5012957;28;20050;-70
2023/01/19 13:05:14;;;;;;;10.82;6.63;;;;;;;;;;5028173;28;20042;-70
2023/01/19 13:08:01;;;;;;;13.00;7.00;;;;;;;;;;5033200;28;20496;-70
2023/01/19 13:13:40;;;;;;;20.00;8.60;;;;;;;;;;5033543;28;20472;-70
2023/01/19 13:16:18;;;;;;;16.33;7.90;;;;;;;;;;5033325;28;20030;-70
2023/01/19 13:19:21;;;;;;;13.93;7.20;;;;;;;;;;5033230;28;20026;-69
2023/01/19 13:21:48;;;;;;;14.23;7.15;;;;;;;;;;5027854;28;20116;-70
2023/01/19 13:24:17;;;;;;;13.63;8.13;;;;;;;;;;5032941;28;20405;-69
2023/01/19 13:26:53;;;;;;;15.43;7.25;;;;;;;;;;5032822;28;20373;-69
2023/01/19 13:29:34;;;;;;;8.40;6.03;;;;;;;;;;5033050;28;20030;-70
2023/01/19 13:32:10;;;;;;;15.43;8.48;;;;;;;;;;5033100;28;20469;-70
2023/01/19 13:34:45;;;;;;;18.00;8.05;;;;;;;;;;5032690;28;20078;-69
2023/01/19 13:37:24;;;;;;;14.07;6.65;;;;;;;;;;5032480;28;20029;-69
2023/01/19 13:39:52;;;;;;;11.10;6.40;;;;;;;;;;5032416;28;20126;-69
2023/01/19 13:42:32;;;;;;;12.88;6.97;;;;;;;;;;5032657;28;20424;-69
2023/01/19 13:45:02;;;;;;;8.40;5.43;;;;;;;;;;5032925;28;20025;-70
2023/01/19 13:47:35;;;;;;;12.13;7.33;;;;;;;;;;5032812;28;20036;-70
2023/01/19 13:50:01;;;;;;;9.15;5.65;;;;;;;;;;5032145;28;20018;-70
2023/01/19 13:52:28;;;;;;;12.50;7.10;;;;;;;;;;5032359;28;20029;-69
2023/01/19 13:54:54;;;;;;;21.98;8.25;;;;;;;;;;5032491;28;20025;-70
2023/01/19 13:57:31;;;;;;;12.48;6.93;;;;;;;;;;5032257;28;20387;-69
2023/01/19 14:00:18;;;;;;;15.35;8.05;;;;;;;;;;5032547;28;20021;-69
2023/01/19 14:02:51;;;;;;;12.98;6.35;;;;;;;;;;5031742;28;20107;-69
2023/01/19 14:05:24;;;;;;;18.38;9.32;;;;;;;;;;5031899;28;20038;-70
2023/01/19 14:08:05;;;;;;;19.63;9.25;;;;;;;;;;5032347;28;20104;-70
2023/01/19 14:10:31;;;;;;;;;;;;;;;;;;5032761;28;20033;-69
2023/01/19 14:13:02;;;;;;;14.23;7.15;;;;;;;;;;5032315;28;19913;-70
2023/01/19 14:15:29;;;;;;;14.90;8.27;;;;;;;;;;5032368;28;20021;-69
2023/01/19 14:18:25;;;;;;;15.30;7.55;;;;;;;;;;5032117;28;20104;-70
2023/01/19 14:21:14;;;;;;;16.35;8.60;;;;;;;;;;5032148;28;20087;-70
2023/01/19 14:23:49;;;;;;;13.90;7.65;;;;;;;;;;5032140;28;20136;-70
2023/01/19 14:26:36;;;;;;;15.15;7.80;;;;;;;;;;5032143;28;20064;-69
2023/01/19 14:29:14;;;;;;;13.85;8.50;;;;;;;;;;5032192;28;20018;-70
2023/01/19 14:31:48;;;;;;;19.23;7.38;;;;;;;;;;5032142;28;20026;-70
2023/01/19 14:34:37;;;;;;;11.10;6.72;;;;;;;;;;5031810;28;20029;-69
2023/01/19 14:37:24;;;;;;;15.63;8.50;;;;;;;;;;5032335;28;20036;-70
2023/01/19 14:39:55;;;;;;;17.38;7.60;;;;;;;;;;5031728;28;20017;-69
2023/01/19 14:42:25;;;;;;;8.38;5.45;;;;;;;;;;5031960;28;20119;-69
2023/01/19 14:44:52;;;;;;;15.65;8.35;;;;;;;;;;5032138;28;20033;-69
2023/01/19 14:47:30;;;;;;;14.90;8.45;;;;;;;;;;5031839;28;20033;-69
2023/01/19 14:50:16;;;;;;;13.70;8.13;;;;;;;;;;5031959;28;20103;-70
2023/01/19 14:52:47;;;;;;;15.70;7.85;;;;;;;;;;5036248;28;20413;-71
2023/01/19 14:55:20;;;;;;;10.73;6.60;;;;;;;;;;5035791;28;20022;-70
2023/01/19 14:57:47;;;;;;;13.32;7.15;;;;;;;;;;5018483;28;20025;-71
2023/01/19 15:00:16;;;;;;;15.57;7.43;;;;;;;;;;5035754;28;20039;-70